createdAt,value
2023-09-17T00:01:14.651Z,16.61
2023-09-17T00:05:51.514Z,16.50
2023-09-17T00:08:07.386Z,16.46
2023-09-17T00:10:20.100Z,16.41
2023-09-17T00:12:33.002Z,16.39
2023-09-17T00:14:45.651Z,16.37
2023-09-17T00:16:58.715Z,16.31
2023-09-17T00:19:11.569Z,16.26
2023-09-17T00:21:24.431Z,16.20
2023-09-17T00:23:37.192Z,16.18
2023-09-17T00:25:49.954Z,16.14
2023-09-17T00:28:02.646Z,16.09
2023-09-17T00:30:16.437Z,16.05
2023-09-17T00:32:29.169Z,16.02
2023-09-17T00:34:41.844Z,15.99
2023-09-17T00:36:54.506Z,15.94
2023-09-17T00:39:07.918Z,15.90
2023-09-17T00:41:20.564Z,15.85
2023-09-17T00:43:33.330Z,15.80
2023-09-17T00:45:46.519Z,15.77
2023-09-17T00:48:01.808Z,15.71
2023-09-17T00:50:15.038Z,15.66
2023-09-17T00:52:28.218Z,15.63
2023-09-17T00:54:41.819Z,15.58
2023-09-17T00:56:55.261Z,15.47
2023-09-17T00:59:08.391Z,15.40
2023-09-17T01:01:21.320Z,15.37
2023-09-17T01:03:34.359Z,15.38
2023-09-17T01:05:47.994Z,15.37
2023-09-17T01:08:00.867Z,15.34
2023-09-17T01:10:14.689Z,15.33
2023-09-17T01:12:27.825Z,15.32
2023-09-17T01:14:40.580Z,15.30
2023-09-17T01:16:55.119Z,15.27
2023-09-17T01:19:15.540Z,15.23
2023-09-17T01:21:37.377Z,15.18
2023-09-17T01:24:03.151Z,15.15
2023-09-17T01:26:26.027Z,15.13
2023-09-17T01:28:38.787Z,15.10
2023-09-17T01:30:51.479Z,15.07
2023-09-17T01:33:04.348Z,15.00
2023-09-17T01:35:18.153Z,14.98
2023-09-17T01:37:36.338Z,14.97
2023-09-17T01:39:56.299Z,14.96
2023-09-17T01:42:11.519Z,14.93
2023-09-17T01:44:25.553Z,14.92
2023-09-17T01:46:42.114Z,14.89
2023-09-17T01:48:55.670Z,14.87
2023-09-17T01:51:09.170Z,14.85
2023-09-17T01:53:22.046Z,14.83
2023-09-17T01:55:34.757Z,14.81
2023-09-17T01:57:47.484Z,14.78
2023-09-17T02:00:00.263Z,14.75
2023-09-17T02:02:13.192Z,14.73
2023-09-17T02:04:26.005Z,14.69
2023-09-17T02:06:38.668Z,14.65
2023-09-17T02:08:51.269Z,14.61
2023-09-17T02:11:05.783Z,14.59
2023-09-17T02:13:18.447Z,14.57
2023-09-17T02:15:31.119Z,14.57
2023-09-17T02:17:43.852Z,14.56
2023-09-17T02:19:57.168Z,14.52
2023-09-17T02:22:10.014Z,14.46
2023-09-17T02:24:22.665Z,14.41
2023-09-17T02:26:35.280Z,14.36
2023-09-17T02:28:47.898Z,14.33
2023-09-17T02:31:01.002Z,14.32
2023-09-17T02:33:13.745Z,14.32
2023-09-17T02:35:26.524Z,14.32
2023-09-17T02:37:39.357Z,14.32
2023-09-17T02:39:52.193Z,14.30
2023-09-17T02:42:05.121Z,14.31
2023-09-17T02:44:17.849Z,14.32
2023-09-17T02:46:30.608Z,14.31
2023-09-17T02:48:43.338Z,14.30
2023-09-17T02:50:56.067Z,14.22
2023-09-17T02:53:08.993Z,14.15
2023-09-17T02:55:22.245Z,14.12
2023-09-17T02:57:35.113Z,14.11
2023-09-17T02:59:48.417Z,14.11
2023-09-17T03:02:01.171Z,14.10
2023-09-17T03:04:13.945Z,14.09
2023-09-17T03:06:26.586Z,14.06
2023-09-17T03:08:42.821Z,14.04
2023-09-17T03:10:59.921Z,14.02
2023-09-17T03:13:13.873Z,13.97
2023-09-17T03:15:27.306Z,13.92
2023-09-17T03:17:43.098Z,13.88
2023-09-17T03:19:55.978Z,13.87
2023-09-17T03:22:08.677Z,13.85
2023-09-17T03:24:21.335Z,13.83
2023-09-17T03:26:34.066Z,13.83
2023-09-17T03:28:46.830Z,13.82
2023-09-17T03:31:00.640Z,13.81
2023-09-17T03:33:15.024Z,13.79
2023-09-17T03:35:28.039Z,13.77
2023-09-17T03:37:40.718Z,13.76
2023-09-17T03:40:12.848Z,13.75
2023-09-17T03:42:25.455Z,13.68
2023-09-17T03:44:38.080Z,13.62
2023-09-17T03:46:50.780Z,13.58
2023-09-17T03:49:04.236Z,13.57
2023-09-17T03:51:16.924Z,13.57
2023-09-17T03:53:31.263Z,13.56
2023-09-17T03:55:43.972Z,13.52
2023-09-17T03:57:58.230Z,13.51
2023-09-17T04:00:11.928Z,13.50
2023-09-17T04:02:24.661Z,13.50
2023-09-17T04:04:37.463Z,13.49
2023-09-17T04:06:50.120Z,13.47
2023-09-17T04:09:02.851Z,13.47
2023-09-17T04:11:17.452Z,13.45
2023-09-17T04:13:30.751Z,13.43
2023-09-17T04:15:43.533Z,13.40
2023-09-17T04:17:56.308Z,13.39
2023-09-17T04:20:15.255Z,13.39
2023-09-17T04:22:28.278Z,13.39
2023-09-17T04:24:41.138Z,13.39
2023-09-17T04:26:57.623Z,13.36
2023-09-17T04:29:11.609Z,13.32
2023-09-17T04:31:24.305Z,13.30
2023-09-17T04:33:37.021Z,13.31
2023-09-17T04:35:49.721Z,13.33
2023-09-17T04:38:02.511Z,13.33
2023-09-17T04:40:15.767Z,13.33
2023-09-17T04:42:29.603Z,13.33
2023-09-17T04:44:42.282Z,13.33
2023-09-17T04:46:55.583Z,13.34
2023-09-17T04:49:08.216Z,13.34
2023-09-17T04:51:22.140Z,13.34
2023-09-17T04:53:34.810Z,13.34
2023-09-17T04:55:47.580Z,13.35
2023-09-17T04:58:00.924Z,13.40
2023-09-17T05:00:14.086Z,13.44
2023-09-17T05:02:27.031Z,13.48
2023-09-17T05:04:39.788Z,13.51
2023-09-17T05:06:52.450Z,13.54
2023-09-17T05:09:05.912Z,13.59
2023-09-17T05:11:18.708Z,13.61
2023-09-17T05:13:31.418Z,13.64
2023-09-17T05:15:44.171Z,13.69
2023-09-17T05:17:56.922Z,13.72
2023-09-17T05:20:10.476Z,13.75
2023-09-17T05:22:23.114Z,13.79
2023-09-17T05:24:35.754Z,13.84
2023-09-17T05:26:48.536Z,13.89
2023-09-17T05:29:01.258Z,13.93
2023-09-17T05:31:14.847Z,13.99
2023-09-17T05:33:27.598Z,14.08
2023-09-17T05:35:40.186Z,14.20
2023-09-17T05:37:53.021Z,14.33
2023-09-17T05:40:06.674Z,14.48
2023-09-17T05:42:19.314Z,14.64
2023-09-17T05:44:31.909Z,14.81
2023-09-17T05:46:44.555Z,14.99
2023-09-17T05:48:57.211Z,15.17
2023-09-17T05:51:09.885Z,15.38
2023-09-17T05:53:22.548Z,15.61
2023-09-17T05:55:35.319Z,15.82
2023-09-17T05:57:48.054Z,16.06
2023-09-17T06:00:02.237Z,16.32
2023-09-17T06:02:15.313Z,16.60
2023-09-17T06:04:28.815Z,16.89
2023-09-17T06:06:41.496Z,17.13
2023-09-17T06:08:54.438Z,17.34
2023-09-17T06:11:07.298Z,17.61
2023-09-17T06:13:19.980Z,17.88
2023-09-17T06:15:32.824Z,18.08
2023-09-17T06:17:45.486Z,18.30
2023-09-17T06:19:58.103Z,18.54
2023-09-17T06:22:12.478Z,18.79
2023-09-17T06:24:25.056Z,18.99
2023-09-17T06:26:38.059Z,19.19
2023-09-17T06:28:50.810Z,19.38
2023-09-17T06:31:03.753Z,19.58
2023-09-17T06:33:16.500Z,19.74
2023-09-17T06:35:29.224Z,19.87
2023-09-17T06:37:42.261Z,20.01
2023-09-17T06:39:55.632Z,20.18
2023-09-17T06:42:08.286Z,20.36
2023-09-17T06:44:20.969Z,20.55
2023-09-17T06:46:33.836Z,20.77
2023-09-17T06:48:46.609Z,20.93
2023-09-17T06:50:59.258Z,21.02
2023-09-17T06:53:11.866Z,21.13
2023-09-17T06:55:24.766Z,21.27
2023-09-17T06:57:39.759Z,21.40
2023-09-17T06:59:53.390Z,21.55
2023-09-17T07:02:06.599Z,21.65
2023-09-17T07:04:19.401Z,21.73
2023-09-17T07:06:32.060Z,21.81
2023-09-17T07:08:44.878Z,21.94
2023-09-17T07:10:57.673Z,22.13
2023-09-17T07:13:10.566Z,22.30
2023-09-17T07:15:23.215Z,22.42
2023-09-17T07:17:37.224Z,22.50
2023-09-17T07:19:50.059Z,22.60
2023-09-17T07:22:02.821Z,22.81
2023-09-17T07:24:15.445Z,23.00
2023-09-17T07:26:29.478Z,23.19
2023-09-17T07:28:42.662Z,23.31
2023-09-17T07:30:58.700Z,23.50
2023-09-17T07:33:11.974Z,23.68
2023-09-17T07:35:24.685Z,23.83
2023-09-17T07:37:50.046Z,23.95
2023-09-17T07:40:05.657Z,24.12
2023-09-17T07:42:18.250Z,24.29
2023-09-17T07:44:30.978Z,24.44
2023-09-17T07:46:43.684Z,24.61
2023-09-17T07:48:56.449Z,24.77
2023-09-17T07:51:09.053Z,24.92
2023-09-17T07:53:21.695Z,25.02
2023-09-17T07:55:34.451Z,25.12
2023-09-17T07:57:47.400Z,25.22
2023-09-17T08:00:00.045Z,25.25
2023-09-17T08:02:12.930Z,25.26
2023-09-17T08:04:26.541Z,25.38
2023-09-17T08:06:39.265Z,25.62
2023-09-17T08:08:51.915Z,25.73
2023-09-17T08:11:04.766Z,25.75
2023-09-17T08:13:17.678Z,25.70
2023-09-17T08:15:31.238Z,25.82
2023-09-17T08:17:44.984Z,26.01
2023-09-17T08:19:59.567Z,26.05
2023-09-17T08:22:12.375Z,26.09
2023-09-17T08:24:26.293Z,26.20
2023-09-17T08:26:39.030Z,26.31
2023-09-17T08:28:51.759Z,26.42
2023-09-17T08:31:04.783Z,26.50
2023-09-17T08:33:17.423Z,26.60
2023-09-17T08:35:30.052Z,26.75
2023-09-17T08:37:43.763Z,26.90
2023-09-17T08:39:56.749Z,27.06
2023-09-17T08:42:09.901Z,27.06
2023-09-17T08:44:22.850Z,27.18
2023-09-17T08:46:37.464Z,27.45
2023-09-17T08:48:51.131Z,27.62
2023-09-17T08:51:05.361Z,27.79
2023-09-17T08:53:25.364Z,28.02
2023-09-17T08:55:38.395Z,28.19
2023-09-17T08:57:58.567Z,28.25
2023-09-17T09:00:16.223Z,28.31
2023-09-17T09:02:33.056Z,28.42
2023-09-17T09:04:48.647Z,28.69
2023-09-17T09:07:02.256Z,28.88
2023-09-17T09:09:16.472Z,29.07
2023-09-17T09:11:29.421Z,29.24
2023-09-17T09:13:42.422Z,29.32
2023-09-17T09:15:56.959Z,29.40
2023-09-17T09:18:10.091Z,29.54
2023-09-17T09:20:23.597Z,29.73
2023-09-17T09:22:36.992Z,29.80
2023-09-17T09:24:50.304Z,29.98
2023-09-17T09:27:03.147Z,30.09
2023-09-17T09:29:15.890Z,30.24
2023-09-17T09:31:30.785Z,30.45
2023-09-17T09:33:45.082Z,30.66
2023-09-17T09:35:57.807Z,30.83
2023-09-17T09:38:12.313Z,30.85
2023-09-17T09:40:26.883Z,30.94
2023-09-17T09:42:39.824Z,31.25
2023-09-17T09:44:52.926Z,31.30
2023-09-17T09:47:05.905Z,31.13
2023-09-17T09:49:18.828Z,31.08
2023-09-17T09:51:32.961Z,31.12
2023-09-17T09:53:46.192Z,31.20
2023-09-17T09:55:59.155Z,31.09
2023-09-17T09:58:12.422Z,31.17
2023-09-17T10:00:27.928Z,31.28
2023-09-17T10:02:41.845Z,31.39
2023-09-17T10:04:54.727Z,31.50
2023-09-17T10:07:10.629Z,31.58
2023-09-17T10:09:26.484Z,31.58
2023-09-17T10:11:39.660Z,31.69
2023-09-17T10:14:01.691Z,31.90
2023-09-17T10:16:15.875Z,32.04
2023-09-17T10:18:30.465Z,32.06
2023-09-17T10:20:45.234Z,32.08
2023-09-17T10:22:59.733Z,32.17
2023-09-17T10:25:15.867Z,32.35
2023-09-17T10:27:28.679Z,32.40
2023-09-17T10:29:44.294Z,32.53
2023-09-17T10:31:58.915Z,32.52
2023-09-17T10:34:14.254Z,32.49
2023-09-17T10:36:27.374Z,32.56
2023-09-17T10:38:40.654Z,32.59
2023-09-17T10:40:53.849Z,32.81
2023-09-17T10:43:08.315Z,33.01
2023-09-17T10:45:25.769Z,33.06
2023-09-17T10:47:42.009Z,33.13
2023-09-17T10:49:55.823Z,33.07
2023-09-17T10:52:09.905Z,33.07
2023-09-17T10:54:22.583Z,33.25
2023-09-17T10:56:35.708Z,33.24
2023-09-17T10:58:53.004Z,33.35
2023-09-17T11:01:08.609Z,33.54
2023-09-17T11:03:25.240Z,33.70
2023-09-17T11:05:39.734Z,33.81
2023-09-17T11:07:56.119Z,33.95
2023-09-17T11:10:25.436Z,34.00
2023-09-17T11:12:44.537Z,33.55
2023-09-17T11:14:58.370Z,33.50
2023-09-17T11:17:10.971Z,33.73
2023-09-17T11:19:23.732Z,34.00
2023-09-17T11:21:41.961Z,34.17
2023-09-17T11:23:56.227Z,34.19
2023-09-17T11:26:08.935Z,33.97
2023-09-17T11:28:21.602Z,33.74
2023-09-17T11:30:58.258Z,33.83
2023-09-17T11:33:11.494Z,34.07
2023-09-17T11:35:25.659Z,34.27
2023-09-17T11:37:38.438Z,34.35
2023-09-17T11:39:52.274Z,34.50
2023-09-17T11:42:08.677Z,34.47
2023-09-17T11:57:24.198Z,34.60
2023-09-17T11:59:39.910Z,34.86
2023-09-17T12:01:58.100Z,34.90
2023-09-17T12:04:12.197Z,34.76
2023-09-17T12:06:27.181Z,34.59
2023-09-17T12:08:40.940Z,34.57
2023-09-17T12:10:58.102Z,34.76
2023-09-17T12:13:10.767Z,34.81
2023-09-17T12:15:23.471Z,35.01
2023-09-17T12:17:44.358Z,35.22
2023-09-17T12:20:11.246Z,35.44
2023-09-17T12:22:24.373Z,35.40
2023-09-17T12:24:50.925Z,34.83
2023-09-17T12:27:21.292Z,34.45
2023-09-17T12:29:38.491Z,34.46
2023-09-17T12:31:51.160Z,34.63
2023-09-17T12:34:05.311Z,34.86
2023-09-17T12:36:18.212Z,35.10
2023-09-17T12:38:32.440Z,35.26
2023-09-17T12:40:46.696Z,35.36
2023-09-17T12:42:59.349Z,35.53
2023-09-17T12:45:11.980Z,35.69
2023-09-17T12:47:26.314Z,35.88
2023-09-17T12:49:40.950Z,35.96
2023-09-17T12:51:53.769Z,35.61
2023-09-17T12:54:07.141Z,35.35
2023-09-17T12:56:19.966Z,35.50
2023-09-17T12:58:33.728Z,35.65
2023-09-17T13:00:46.485Z,35.68
2023-09-17T13:03:09.482Z,35.64
2023-09-17T13:05:22.405Z,35.81
2023-09-17T13:07:37.771Z,36.07
2023-09-17T13:09:55.821Z,36.19
2023-09-17T13:12:08.695Z,36.16
2023-09-17T13:14:21.482Z,36.14
2023-09-17T13:16:34.238Z,35.96
2023-09-17T13:18:48.249Z,35.94
2023-09-17T13:21:00.872Z,35.97
2023-09-17T13:23:14.450Z,36.02
2023-09-17T13:25:27.154Z,36.18
2023-09-17T13:27:39.927Z,36.25
2023-09-17T13:29:54.980Z,36.31
2023-09-17T13:32:13.174Z,36.39
2023-09-17T13:34:25.990Z,36.42
2023-09-17T13:36:39.002Z,36.57
2023-09-17T13:38:51.955Z,36.46
2023-09-17T13:41:04.811Z,36.36
2023-09-17T13:43:17.843Z,36.34
2023-09-17T13:45:30.552Z,36.16
2023-09-17T13:47:43.170Z,36.01
2023-09-17T13:49:55.953Z,35.96
2023-09-17T13:52:09.701Z,35.78
2023-09-17T13:54:22.796Z,35.54
2023-09-17T13:56:35.419Z,35.42
2023-09-17T13:58:48.275Z,35.25
2023-09-17T14:01:01.522Z,35.01
2023-09-17T14:03:16.224Z,34.81
2023-09-17T14:05:29.815Z,34.73
2023-09-17T14:07:42.763Z,34.53
2023-09-17T14:09:55.401Z,34.26
2023-09-17T14:12:10.141Z,34.09
2023-09-17T14:14:22.948Z,33.88
2023-09-17T14:16:36.548Z,33.51
2023-09-17T14:18:49.290Z,33.38
2023-09-17T14:21:04.207Z,33.29
2023-09-17T14:23:19.546Z,33.10
2023-09-17T14:25:32.207Z,32.94
2023-09-17T14:27:44.957Z,32.75
2023-09-17T14:29:57.650Z,32.65
2023-09-17T14:32:10.297Z,32.52
2023-09-17T14:34:23.285Z,32.38
2023-09-17T14:36:35.896Z,32.25
2023-09-17T14:38:48.514Z,32.03
2023-09-17T14:41:01.248Z,31.91
2023-09-17T14:43:13.943Z,31.76
2023-09-17T14:45:28.103Z,31.68
2023-09-17T14:47:40.859Z,31.53
2023-09-17T14:49:53.733Z,31.42
2023-09-17T14:52:06.635Z,31.37
2023-09-17T14:54:19.301Z,31.33
2023-09-17T14:56:32.214Z,31.30
2023-09-17T14:58:44.889Z,31.21
2023-09-17T15:00:57.831Z,31.14
2023-09-17T15:03:11.889Z,31.11
2023-09-17T15:05:27.580Z,31.04
2023-09-17T15:07:43.169Z,30.93
2023-09-17T15:09:55.951Z,30.88
2023-09-17T15:12:08.591Z,30.82
2023-09-17T15:14:21.174Z,30.78
2023-09-17T15:16:33.835Z,30.72
2023-09-17T15:18:49.075Z,30.63
2023-09-17T15:21:04.403Z,30.52
2023-09-17T15:23:17.345Z,30.43
2023-09-17T15:25:30.047Z,30.36
2023-09-17T15:27:42.660Z,30.29
2023-09-17T15:29:55.289Z,30.21
2023-09-17T15:32:08.039Z,30.12
2023-09-17T15:34:20.927Z,30.00
2023-09-17T15:36:34.542Z,29.90
2023-09-17T15:38:47.254Z,29.74
2023-09-17T15:43:16.904Z,29.68
2023-09-17T15:45:29.617Z,29.65
2023-09-17T15:47:42.826Z,29.66
2023-09-17T15:49:56.009Z,29.65
2023-09-17T15:52:08.623Z,29.63
2023-09-17T15:54:21.265Z,29.55
2023-09-17T15:56:33.931Z,29.45
2023-09-17T15:58:46.679Z,29.32
2023-09-17T16:00:59.557Z,29.21
2023-09-17T16:03:12.625Z,29.10
2023-09-17T16:05:25.704Z,29.02
2023-09-17T16:07:44.698Z,28.95
2023-09-17T16:09:58.946Z,28.85
2023-09-17T16:12:11.819Z,28.78
2023-09-17T16:14:24.509Z,28.68
2023-09-17T16:16:37.298Z,28.57
2023-09-17T16:18:49.925Z,28.46
2023-09-17T16:21:06.699Z,28.31
2023-09-17T16:23:19.314Z,28.11
2023-09-17T16:25:32.074Z,27.95
2023-09-17T16:27:44.713Z,27.80
2023-09-17T16:29:57.469Z,27.62
2023-09-17T16:32:13.117Z,27.49
2023-09-17T16:34:26.484Z,27.33
2023-09-17T16:36:41.006Z,27.17
2023-09-17T16:38:53.681Z,26.99
2023-09-17T16:41:06.372Z,26.85
2023-09-17T16:43:18.979Z,26.69
2023-09-17T16:45:31.598Z,26.52
2023-09-17T16:47:44.436Z,26.34
2023-09-17T16:49:57.137Z,26.17
2023-09-17T16:52:10.244Z,26.04
2023-09-17T16:54:23.728Z,25.82
2023-09-17T16:56:38.921Z,25.67
2023-09-17T16:58:51.629Z,25.55
2023-09-17T17:01:04.279Z,25.43
2023-09-17T17:03:17.717Z,25.25
2023-09-17T17:05:30.616Z,25.08
2023-09-17T17:07:43.258Z,24.94
2023-09-17T17:09:55.953Z,24.79
2023-09-17T17:12:08.575Z,24.65
2023-09-17T17:14:22.219Z,24.50
2023-09-17T17:16:35.393Z,24.36
2023-09-17T17:18:48.052Z,24.20
2023-09-17T17:21:03.765Z,24.01
2023-09-17T17:23:17.836Z,23.86
2023-09-17T17:25:33.169Z,23.71
2023-09-17T17:27:47.407Z,23.56
2023-09-17T17:30:00.279Z,23.43
2023-09-17T17:32:13.282Z,23.31
2023-09-17T17:34:26.438Z,23.18
2023-09-17T17:36:39.224Z,23.03
2023-09-17T17:38:51.926Z,22.92
2023-09-17T17:41:05.195Z,22.80
2023-09-17T17:43:18.031Z,22.71
2023-09-17T17:45:31.698Z,22.63
2023-09-17T17:47:45.845Z,22.55
2023-09-17T17:49:58.512Z,22.44
2023-09-17T17:52:11.176Z,22.35
2023-09-17T17:54:23.910Z,22.25
2023-09-17T17:56:36.835Z,22.16
2023-09-17T17:58:49.689Z,22.08
2023-09-17T18:01:04.183Z,21.99
2023-09-17T18:03:18.095Z,21.89
2023-09-17T18:05:34.031Z,21.77
2023-09-17T18:07:46.718Z,21.64
2023-09-17T18:09:59.841Z,21.55
2023-09-17T18:12:12.854Z,21.46
2023-09-17T18:14:25.559Z,21.39
2023-09-17T18:16:38.224Z,21.31
2023-09-17T18:18:50.817Z,21.23
2023-09-17T18:21:03.545Z,21.12
2023-09-17T18:23:16.219Z,21.03
2023-09-17T18:25:33.087Z,20.96
2023-09-17T18:27:45.847Z,20.86
2023-09-17T18:29:58.463Z,20.80
2023-09-17T18:32:11.597Z,20.75
2023-09-17T18:34:24.967Z,20.68
2023-09-17T18:36:44.225Z,20.61
2023-09-17T18:38:56.878Z,20.53
2023-09-17T18:41:09.577Z,20.48
2023-09-17T18:43:22.205Z,20.42
2023-09-17T18:45:36.861Z,20.35
2023-09-17T18:47:49.527Z,20.28
2023-09-17T18:50:02.430Z,20.22
2023-09-17T18:52:15.634Z,20.17
2023-09-17T18:54:28.289Z,20.11
2023-09-17T18:56:44.961Z,20.05
2023-09-17T18:58:57.622Z,19.98
2023-09-17T19:01:10.473Z,19.92
2023-09-17T19:03:25.209Z,19.86
2023-09-17T19:05:38.097Z,19.79
2023-09-17T19:07:50.818Z,19.74
2023-09-17T19:10:06.540Z,19.67
2023-09-17T19:12:23.094Z,19.60
2023-09-17T19:14:41.280Z,19.54
2023-09-17T19:16:53.974Z,19.48
2023-09-17T19:19:07.110Z,19.43
2023-09-17T19:21:19.999Z,19.38
2023-09-17T19:23:32.828Z,19.31
2023-09-17T19:25:45.484Z,19.23
2023-09-17T19:27:58.145Z,19.16
2023-09-17T19:30:11.397Z,19.11
2023-09-17T19:32:24.681Z,19.07
2023-09-17T19:34:37.503Z,19.03
2023-09-17T19:36:50.459Z,18.97
2023-09-17T19:39:03.961Z,18.93
2023-09-17T19:41:16.751Z,18.89
2023-09-17T19:43:29.460Z,18.86
2023-09-17T19:45:54.133Z,18.83
2023-09-17T19:48:07.285Z,18.76
2023-09-17T19:50:20.292Z,18.72
2023-09-17T19:52:33.105Z,18.69
2023-09-17T19:54:45.853Z,18.66
2023-09-17T19:56:58.491Z,18.63
2023-09-17T19:59:11.156Z,18.59
2023-09-17T20:01:23.849Z,18.55
2023-09-17T20:03:36.564Z,18.51
2023-09-17T20:05:49.276Z,18.47
2023-09-17T20:08:02.895Z,18.42
2023-09-17T20:10:17.114Z,18.38
2023-09-17T20:12:29.764Z,18.35
2023-09-17T20:14:42.453Z,18.30
2023-09-17T20:16:55.252Z,18.26
2023-09-17T20:19:07.920Z,18.24
2023-09-17T20:21:20.566Z,18.19
2023-09-17T20:23:37.336Z,18.13
2023-09-17T20:25:50.124Z,18.03
2023-09-17T20:28:03.366Z,17.97
2023-09-17T20:30:16.098Z,17.93
2023-09-17T20:32:28.775Z,17.89
2023-09-17T20:34:41.478Z,17.86
2023-09-17T20:36:54.149Z,17.84
2023-09-17T20:39:07.595Z,17.80
2023-09-17T20:41:20.312Z,17.74
2023-09-17T20:43:32.999Z,17.70
2023-09-17T20:45:45.819Z,17.65
2023-09-17T20:47:58.622Z,17.62
2023-09-17T20:50:11.697Z,17.59
2023-09-17T20:52:24.412Z,17.55
2023-09-17T20:54:37.190Z,17.52
2023-09-17T20:56:50.091Z,17.50
2023-09-17T20:59:02.808Z,17.47
2023-09-17T21:01:15.565Z,17.45
2023-09-17T21:03:28.307Z,17.43
2023-09-17T21:05:48.770Z,17.41
2023-09-17T21:08:01.781Z,17.37
2023-09-17T21:10:14.497Z,17.33
2023-09-17T21:12:29.344Z,17.30
2023-09-17T21:14:42.006Z,17.27
2023-09-17T21:16:54.694Z,17.23
2023-09-17T21:19:07.544Z,17.22
2023-09-17T21:21:20.200Z,17.19
2023-09-17T21:23:36.714Z,17.17
2023-09-17T21:25:49.535Z,17.15
2023-09-17T21:28:02.234Z,17.11
2023-09-17T21:30:15.099Z,17.07
2023-09-17T21:32:27.905Z,17.04
2023-09-17T21:34:40.551Z,17.02
2023-09-17T21:36:53.231Z,16.99
2023-09-17T21:39:06.398Z,16.94
2023-09-17T21:41:19.299Z,16.90
2023-09-17T21:43:32.032Z,16.87
2023-09-17T21:45:45.207Z,16.83
2023-09-17T21:47:57.941Z,16.80
2023-09-17T21:50:11.614Z,16.76
2023-09-17T21:52:24.532Z,16.72
2023-09-17T21:54:37.467Z,16.70
2023-09-17T21:56:50.956Z,16.68
2023-09-17T21:59:03.650Z,16.65
2023-09-17T22:01:16.862Z,16.64
2023-09-17T22:03:29.654Z,16.60
2023-09-17T22:05:43.340Z,16.58
2023-09-17T22:07:55.983Z,16.54
2023-09-17T22:10:09.110Z,16.50
2023-09-17T22:12:21.756Z,16.46
2023-09-17T22:14:35.728Z,16.43
2023-09-17T22:16:48.627Z,16.41
2023-09-17T22:19:01.345Z,16.40
2023-09-17T22:21:14.012Z,16.39
2023-09-17T22:23:27.816Z,16.36
2023-09-17T22:25:40.564Z,16.32
2023-09-17T22:27:54.776Z,16.30
2023-09-17T22:30:08.930Z,16.28
2023-09-17T22:32:21.964Z,16.26
2023-09-17T22:34:34.688Z,16.23
2023-09-17T22:36:47.343Z,16.21
2023-09-17T22:39:00.077Z,16.18
2023-09-17T22:41:20.285Z,16.14
2023-09-17T22:43:33.150Z,16.10
2023-09-17T22:45:45.873Z,16.08
2023-09-17T22:47:58.636Z,16.07
2023-09-17T22:50:11.442Z,16.04
2023-09-17T22:52:24.121Z,16.03
2023-09-17T22:54:36.749Z,16.01
2023-09-17T22:56:49.389Z,15.99
2023-09-17T22:59:02.085Z,15.96
2023-09-17T23:01:18.519Z,15.94
2023-09-17T23:03:31.353Z,15.91
2023-09-17T23:05:44.187Z,15.88
2023-09-17T23:07:56.952Z,15.86
2023-09-17T23:10:09.844Z,15.84
2023-09-17T23:12:22.509Z,15.81
2023-09-17T23:14:36.521Z,15.79
2023-09-17T23:16:49.474Z,15.77
2023-09-17T23:19:02.128Z,15.75
2023-09-17T23:21:16.300Z,15.72
2023-09-17T23:23:29.137Z,15.71
2023-09-17T23:25:43.663Z,15.69
2023-09-17T23:27:56.338Z,15.67
2023-09-17T23:30:09.659Z,15.65
2023-09-17T23:32:22.466Z,15.62
2023-09-17T23:34:35.593Z,15.60
2023-09-17T23:36:48.246Z,15.58
2023-09-17T23:39:01.617Z,15.55
2023-09-17T23:41:14.452Z,15.52
2023-09-17T23:43:27.200Z,15.50
2023-09-17T23:45:40.736Z,15.48
2023-09-17T23:47:53.529Z,15.45
2023-09-17T23:50:06.698Z,15.43
2023-09-17T23:52:19.339Z,15.41
2023-09-17T23:54:32.200Z,15.40
2023-09-17T23:56:44.865Z,15.38
2023-09-17T23:58:57.503Z,15.34
